sensor_id;sensor_type;location;lat;lon;timestamp;P1;durP1;ratioP1;P2;durP2;ratioP2
10269;SDS011;70826;50.930;5.334;2023-07-30T00:00:03;2.28;;;2.10;;
10269;SDS011;70826;50.930;5.334;2023-07-30T00:02:29;3.33;;;2.33;;
10269;SDS011;70826;50.930;5.334;2023-07-30T00:04:54;2.90;;;2.30;;
10269;SDS011;70826;50.930;5.334;2023-07-30T00:07:25;2.38;;;2.15;;
10269;SDS011;70826;50.930;5.334;2023-07-30T00:09:55;2.30;;;2.10;;
10269;SDS011;70826;50.930;5.334;2023-07-30T00:12:21;2.40;;;2.28;;
10269;SDS011;70826;50.930;5.334;2023-07-30T00:14:46;2.10;;;2.00;;
10269;SDS011;70826;50.930;5.334;2023-07-30T00:17:12;3.00;;;2.30;;
10269;SDS011;70826;50.930;5.334;2023-07-30T00:19:38;3.85;;;2.38;;
10269;SDS011;70826;50.930;5.334;2023-07-30T00:22:06;2.50;;;2.30;;
10269;SDS011;70826;50.930;5.334;2023-07-30T00:24:33;2.50;;;2.30;;
10269;SDS011;70826;50.930;5.334;2023-07-30T00:27:02;2.50;;;2.30;;
10269;SDS011;70826;50.930;5.334;2023-07-30T00:29:34;2.40;;;2.20;;
10269;SDS011;70826;50.930;5.334;2023-07-30T00:32:00;2.47;;;2.20;;
10269;SDS011;70826;50.930;5.334;2023-07-30T00:34:28;2.60;;;2.20;;
10269;SDS011;70826;50.930;5.334;2023-07-30T00:36:53;2.58;;;2.38;;
10269;SDS011;70826;50.930;5.334;2023-07-30T00:39:21;3.00;;;2.50;;
10269;SDS011;70826;50.930;5.334;2023-07-30T00:41:49;2.60;;;2.40;;
10269;SDS011;70826;50.930;5.334;2023-07-30T00:44:17;2.42;;;2.22;;
10269;SDS011;70826;50.930;5.334;2023-07-30T00:46:45;2.38;;;2.20;;
10269;SDS011;70826;50.930;5.334;2023-07-30T00:49:13;2.47;;;2.28;;
10269;SDS011;70826;50.930;5.334;2023-07-30T00:51:39;2.65;;;2.42;;
10269;SDS011;70826;50.930;5.334;2023-07-30T00:54:10;2.40;;;2.17;;
10269;SDS011;70826;50.930;5.334;2023-07-30T00:56:41;2.80;;;2.60;;
10269;SDS011;70826;50.930;5.334;2023-07-30T00:59:16;2.17;;;2.08;;
10269;SDS011;70826;50.930;5.334;2023-07-30T01:01:42;3.70;;;2.40;;
10269;SDS011;70826;50.930;5.334;2023-07-30T01:04:10;2.42;;;2.33;;
10269;SDS011;70826;50.930;5.334;2023-07-30T01:06:39;2.60;;;2.40;;
10269;SDS011;70826;50.930;5.334;2023-07-30T01:09:07;2.50;;;2.30;;
10269;SDS011;70826;50.930;5.334;2023-07-30T01:11:33;2.30;;;2.10;;
10269;SDS011;70826;50.930;5.334;2023-07-30T01:14:00;2.60;;;2.40;;
10269;SDS011;70826;50.930;5.334;2023-07-30T01:16:26;2.40;;;2.20;;
10269;SDS011;70826;50.930;5.334;2023-07-30T01:18:52;2.50;;;2.30;;
10269;SDS011;70826;50.930;5.334;2023-07-30T01:21:17;2.58;;;2.35;;
10269;SDS011;70826;50.930;5.334;2023-07-30T01:23:43;2.50;;;2.30;;
10269;SDS011;70826;50.930;5.334;2023-07-30T01:26:12;2.45;;;2.25;;
10269;SDS011;70826;50.930;5.334;2023-07-30T01:28:47;2.40;;;2.20;;
10269;SDS011;70826;50.930;5.334;2023-07-30T01:31:19;2.47;;;2.35;;
10269;SDS011;70826;50.930;5.334;2023-07-30T01:33:50;2.75;;;2.50;;
10269;SDS011;70826;50.930;5.334;2023-07-30T01:36:19;2.47;;;2.28;;
10269;SDS011;70826;50.930;5.334;2023-07-30T01:38:48;2.35;;;2.15;;
10269;SDS011;70826;50.930;5.334;2023-07-30T01:41:15;2.50;;;2.30;;
10269;SDS011;70826;50.930;5.334;2023-07-30T01:43:41;2.50;;;2.30;;
10269;SDS011;70826;50.930;5.334;2023-07-30T01:46:09;2.53;;;2.33;;
10269;SDS011;70826;50.930;5.334;2023-07-30T01:48:34;2.40;;;2.28;;
10269;SDS011;70826;50.930;5.334;2023-07-30T01:51:02;2.40;;;2.20;;
10269;SDS011;70826;50.930;5.334;2023-07-30T01:53:28;3.00;;;2.53;;
10269;SDS011;70826;50.930;5.334;2023-07-30T01:55:53;2.38;;;2.17;;
10269;SDS011;70826;50.930;5.334;2023-07-30T01:58:22;2.78;;;2.45;;
10269;SDS011;70826;50.930;5.334;2023-07-30T02:00:50;2.60;;;2.40;;
10269;SDS011;70826;50.930;5.334;2023-07-30T02:03:17;2.70;;;2.50;;
10269;SDS011;70826;50.930;5.334;2023-07-30T02:05:48;2.65;;;2.45;;
10269;SDS011;70826;50.930;5.334;2023-07-30T02:08:18;2.60;;;2.40;;
10269;SDS011;70826;50.930;5.334;2023-07-30T02:10:44;2.63;;;2.42;;
10269;SDS011;70826;50.930;5.334;2023-07-30T02:13:18;2.28;;;2.08;;
10269;SDS011;70826;50.930;5.334;2023-07-30T02:15:44;2.45;;;2.25;;
10269;SDS011;70826;50.930;5.334;2023-07-30T02:18:10;2.58;;;2.38;;
10269;SDS011;70826;50.930;5.334;2023-07-30T02:20:35;2.55;;;2.35;;
10269;SDS011;70826;50.930;5.334;2023-07-30T02:23:01;2.53;;;2.30;;
10269;SDS011;70826;50.930;5.334;2023-07-30T02:25:27;2.60;;;2.40;;
10269;SDS011;70826;50.930;5.334;2023-07-30T02:27:53;2.70;;;2.50;;
10269;SDS011;70826;50.930;5.334;2023-07-30T02:30:21;2.70;;;2.50;;
10269;SDS011;70826;50.930;5.334;2023-07-30T02:32:49;2.80;;;2.45;;
10269;SDS011;70826;50.930;5.334;2023-07-30T02:35:19;2.88;;;2.40;;
10269;SDS011;70826;50.930;5.334;2023-07-30T02:37:50;2.67;;;2.47;;
10269;SDS011;70826;50.930;5.334;2023-07-30T02:40:15;2.95;;;2.65;;
10269;SDS011;70826;50.930;5.334;2023-07-30T02:42:44;2.80;;;2.60;;
10269;SDS011;70826;50.930;5.334;2023-07-30T02:45:09;2.80;;;2.60;;
10269;SDS011;70826;50.930;5.334;2023-07-30T02:47:37;2.95;;;2.75;;
10269;SDS011;70826;50.930;5.334;2023-07-30T02:50:08;2.90;;;2.70;;
10269;SDS011;70826;50.930;5.334;2023-07-30T02:52:39;3.25;;;2.83;;
10269;SDS011;70826;50.930;5.334;2023-07-30T02:55:04;3.17;;;2.97;;
10269;SDS011;70826;50.930;5.334;2023-07-30T02:57:30;3.72;;;3.42;;
10269;SDS011;70826;50.930;5.334;2023-07-30T02:59:58;3.10;;;2.88;;
10269;SDS011;70826;50.930;5.334;2023-07-30T03:02:24;3.45;;;3.15;;
10269;SDS011;70826;50.930;5.334;2023-07-30T03:04:54;4.10;;;3.28;;
10269;SDS011;70826;50.930;5.334;2023-07-30T03:07:20;3.63;;;3.33;;
10269;SDS011;70826;50.930;5.334;2023-07-30T03:09:45;3.80;;;3.50;;
10269;SDS011;70826;50.930;5.334;2023-07-30T03:12:11;3.95;;;3.58;;
10269;SDS011;70826;50.930;5.334;2023-07-30T03:14:39;4.22;;;3.92;;
10269;SDS011;70826;50.930;5.334;2023-07-30T03:17:07;4.00;;;3.70;;
10269;SDS011;70826;50.930;5.334;2023-07-30T03:19:35;4.15;;;3.85;;
10269;SDS011;70826;50.930;5.334;2023-07-30T03:22:03;6.05;;;4.15;;
10269;SDS011;70826;50.930;5.334;2023-07-30T03:24:31;4.57;;;4.13;;
10269;SDS011;70826;50.930;5.334;2023-07-30T03:26:56;4.53;;;4.15;;
10269;SDS011;70826;50.930;5.334;2023-07-30T03:29:22;4.90;;;4.40;;
10269;SDS011;70826;50.930;5.334;2023-07-30T03:31:48;5.40;;;4.80;;
10269;SDS011;70826;50.930;5.334;2023-07-30T03:34:15;4.60;;;4.30;;
10269;SDS011;70826;50.930;5.334;2023-07-30T03:36:43;5.10;;;3.97;;
10269;SDS011;70826;50.930;5.334;2023-07-30T03:39:11;4.90;;;4.00;;
10269;SDS011;70826;50.930;5.334;2023-07-30T03:41:39;4.00;;;3.80;;
10269;SDS011;70826;50.930;5.334;2023-07-30T03:44:08;4.07;;;3.58;;
10269;SDS011;70826;50.930;5.334;2023-07-30T03:46:33;3.47;;;3.28;;
10269;SDS011;70826;50.930;5.334;2023-07-30T03:48:59;3.90;;;3.40;;
10269;SDS011;70826;50.930;5.334;2023-07-30T03:51:26;3.35;;;3.05;;
10269;SDS011;70826;50.930;5.334;2023-07-30T03:53:52;4.10;;;3.78;;
10269;SDS011;70826;50.930;5.334;2023-07-30T03:56:18;3.47;;;3.25;;
10269;SDS011;70826;50.930;5.334;2023-07-30T03:58:45;4.45;;;3.50;;
10269;SDS011;70826;50.930;5.334;2023-07-30T04:01:11;3.53;;;3.22;;
10269;SDS011;70826;50.930;5.334;2023-07-30T04:03:37;4.20;;;3.30;;
10269;SDS011;70826;50.930;5.334;2023-07-30T04:06:02;3.58;;;3.28;;
10269;SDS011;70826;50.930;5.334;2023-07-30T04:08:28;3.10;;;2.90;;
10269;SDS011;70826;50.930;5.334;2023-07-30T04:10:54;3.35;;;3.15;;
10269;SDS011;70826;50.930;5.334;2023-07-30T04:13:19;3.40;;;3.10;;
10269;SDS011;70826;50.930;5.334;2023-07-30T04:15:47;3.75;;;3.20;;
10269;SDS011;70826;50.930;5.334;2023-07-30T04:18:13;3.35;;;3.15;;
10269;SDS011;70826;50.930;5.334;2023-07-30T04:20:38;3.40;;;3.10;;
10269;SDS011;70826;50.930;5.334;2023-07-30T04:23:04;3.38;;;3.08;;
10269;SDS011;70826;50.930;5.334;2023-07-30T04:25:29;3.03;;;2.78;;
10269;SDS011;70826;50.930;5.334;2023-07-30T04:27:55;3.08;;;2.88;;
10269;SDS011;70826;50.930;5.334;2023-07-30T04:30:21;3.47;;;3.17;;
10269;SDS011;70826;50.930;5.334;2023-07-30T04:32:46;4.07;;;2.88;;
10269;SDS011;70826;50.930;5.334;2023-07-30T04:35:15;3.40;;;3.08;;
10269;SDS011;70826;50.930;5.334;2023-07-30T04:37:40;3.42;;;3.03;;
10269;SDS011;70826;50.930;5.334;2023-07-30T04:40:08;3.53;;;2.95;;
10269;SDS011;70826;50.930;5.334;2023-07-30T04:42:42;3.10;;;2.88;;
10269;SDS011;70826;50.930;5.334;2023-07-30T04:45:11;3.38;;;3.00;;
10269;SDS011;70826;50.930;5.334;2023-07-30T04:47:36;2.95;;;2.75;;
10269;SDS011;70826;50.930;5.334;2023-07-30T04:50:09;3.08;;;2.85;;
10269;SDS011;70826;50.930;5.334;2023-07-30T04:52:35;3.08;;;2.88;;
10269;SDS011;70826;50.930;5.334;2023-07-30T04:55:00;3.40;;;3.00;;
10269;SDS011;70826;50.930;5.334;2023-07-30T04:57:30;3.45;;;3.15;;
10269;SDS011;70826;50.930;5.334;2023-07-30T04:59:56;3.13;;;2.92;;
10269;SDS011;70826;50.930;5.334;2023-07-30T05:02:25;3.17;;;2.88;;
10269;SDS011;70826;50.930;5.334;2023-07-30T05:04:50;3.10;;;2.83;;
10269;SDS011;70826;50.930;5.334;2023-07-30T05:07:16;3.40;;;3.10;;
10269;SDS011;70826;50.930;5.334;2023-07-30T05:09:42;3.20;;;3.00;;
10269;SDS011;70826;50.930;5.334;2023-07-30T05:12:12;4.88;;;3.08;;
10269;SDS011;70826;50.930;5.334;2023-07-30T05:14:40;3.35;;;3.05;;
10269;SDS011;70826;50.930;5.334;2023-07-30T05:17:05;3.08;;;2.80;;
10269;SDS011;70826;50.930;5.334;2023-07-30T05:19:36;3.22;;;2.90;;
10269;SDS011;70826;50.930;5.334;2023-07-30T05:22:04;3.30;;;3.00;;
10269;SDS011;70826;50.930;5.334;2023-07-30T05:24:32;3.20;;;2.85;;
10269;SDS011;70826;50.930;5.334;2023-07-30T05:27:01;3.65;;;3.00;;
10269;SDS011;70826;50.930;5.334;2023-07-30T05:29:29;3.15;;;2.92;;
10269;SDS011;70826;50.930;5.334;2023-07-30T05:31:55;3.25;;;2.95;;
10269;SDS011;70826;50.930;5.334;2023-07-30T05:34:21;3.28;;;2.95;;
10269;SDS011;70826;50.930;5.334;2023-07-30T05:36:46;2.97;;;2.75;;
10269;SDS011;70826;50.930;5.334;2023-07-30T05:39:14;3.38;;;3.05;;
10269;SDS011;70826;50.930;5.334;2023-07-30T05:41:42;3.35;;;3.05;;
10269;SDS011;70826;50.930;5.334;2023-07-30T05:44:08;2.92;;;2.72;;
10269;SDS011;70826;50.930;5.334;2023-07-30T05:46:38;3.47;;;2.83;;
10269;SDS011;70826;50.930;5.334;2023-07-30T05:49:06;3.05;;;2.75;;
10269;SDS011;70826;50.930;5.334;2023-07-30T05:51:34;3.38;;;3.08;;
10269;SDS011;70826;50.930;5.334;2023-07-30T05:54:02;3.47;;;3.20;;
10269;SDS011;70826;50.930;5.334;2023-07-30T05:56:30;3.15;;;2.92;;
10269;SDS011;70826;50.930;5.334;2023-07-30T05:59:01;3.65;;;3.35;;
10269;SDS011;70826;50.930;5.334;2023-07-30T06:01:28;3.58;;;3.28;;
10269;SDS011;70826;50.930;5.334;2023-07-30T06:03:56;4.35;;;3.25;;
10269;SDS011;70826;50.930;5.334;2023-07-30T06:06:24;3.60;;;3.30;;
10269;SDS011;70826;50.930;5.334;2023-07-30T06:08:55;4.75;;;3.72;;
10269;SDS011;70826;50.930;5.334;2023-07-30T06:11:24;3.38;;;3.15;;
10269;SDS011;70826;50.930;5.334;2023-07-30T06:13:50;3.72;;;3.42;;
10269;SDS011;70826;50.930;5.334;2023-07-30T06:16:20;3.42;;;3.13;;
10269;SDS011;70826;50.930;5.334;2023-07-30T06:18:48;3.83;;;3.53;;
10269;SDS011;70826;50.930;5.334;2023-07-30T06:21:13;3.78;;;3.50;;
10269;SDS011;70826;50.930;5.334;2023-07-30T06:23:39;3.72;;;3.42;;
10269;SDS011;70826;50.930;5.334;2023-07-30T06:26:08;3.72;;;3.42;;
10269;SDS011;70826;50.930;5.334;2023-07-30T06:28:35;3.63;;;3.33;;
10269;SDS011;70826;50.930;5.334;2023-07-30T06:31:01;4.13;;;3.50;;
10269;SDS011;70826;50.930;5.334;2023-07-30T06:33:27;3.97;;;3.55;;
10269;SDS011;70826;50.930;5.334;2023-07-30T06:35:53;3.70;;;3.47;;
10269;SDS011;70826;50.930;5.334;2023-07-30T06:38:21;4.25;;;3.83;;
10269;SDS011;70826;50.930;5.334;2023-07-30T06:40:47;3.78;;;3.47;;
10269;SDS011;70826;50.930;5.334;2023-07-30T06:43:12;4.45;;;3.83;;
10269;SDS011;70826;50.930;5.334;2023-07-30T06:45:38;3.97;;;3.72;;
10269;SDS011;70826;50.930;5.334;2023-07-30T06:48:06;3.97;;;3.72;;
10269;SDS011;70826;50.930;5.334;2023-07-30T06:50:34;3.83;;;3.47;;
10269;SDS011;70826;50.930;5.334;2023-07-30T06:53:02;4.07;;;3.42;;
10269;SDS011;70826;50.930;5.334;2023-07-30T06:55:28;4.10;;;3.80;;
10269;SDS011;70826;50.930;5.334;2023-07-30T06:57:54;4.32;;;3.95;;
10269;SDS011;70826;50.930;5.334;2023-07-30T07:00:19;4.72;;;3.88;;
10269;SDS011;70826;50.930;5.334;2023-07-30T07:02:49;4.07;;;3.75;;
10269;SDS011;70826;50.930;5.334;2023-07-30T07:05:15;3.95;;;3.65;;
10269;SDS011;70826;50.930;5.334;2023-07-30T07:07:44;4.25;;;3.85;;
10269;SDS011;70826;50.930;5.334;2023-07-30T07:10:10;4.38;;;3.97;;
10269;SDS011;70826;50.930;5.334;2023-07-30T07:12:38;4.97;;;3.45;;
10269;SDS011;70826;50.930;5.334;2023-07-30T07:15:09;3.90;;;3.60;;
10269;SDS011;70826;50.930;5.334;2023-07-30T07:17:37;4.80;;;3.90;;
10269;SDS011;70826;50.930;5.334;2023-07-30T07:20:06;4.18;;;3.85;;
10269;SDS011;70826;50.930;5.334;2023-07-30T07:22:38;4.30;;;3.92;;
10269;SDS011;70826;50.930;5.334;2023-07-30T07:25:06;5.78;;;3.95;;
10269;SDS011;70826;50.930;5.334;2023-07-30T07:27:37;4.40;;;4.00;;
10269;SDS011;70826;50.930;5.334;2023-07-30T07:30:05;4.30;;;3.97;;
10269;SDS011;70826;50.930;5.334;2023-07-30T07:32:31;4.03;;;3.72;;
10269;SDS011;70826;50.930;5.334;2023-07-30T07:35:03;4.20;;;3.90;;
10269;SDS011;70826;50.930;5.334;2023-07-30T07:37:29;3.85;;;3.55;;
10269;SDS011;70826;50.930;5.334;2023-07-30T07:39:54;3.85;;;3.55;;
10269;SDS011;70826;50.930;5.334;2023-07-30T07:42:22;4.30;;;3.90;;
10269;SDS011;70826;50.930;5.334;2023-07-30T07:44:48;4.32;;;3.65;;
10269;SDS011;70826;50.930;5.334;2023-07-30T07:47:18;4.18;;;3.85;;
10269;SDS011;70826;50.930;5.334;2023-07-30T07:49:46;4.32;;;3.90;;
10269;SDS011;70826;50.930;5.334;2023-07-30T07:52:14;4.32;;;3.92;;
10269;SDS011;70826;50.930;5.334;2023-07-30T07:54:40;4.47;;;4.15;;
10269;SDS011;70826;50.930;5.334;2023-07-30T07:57:07;4.03;;;3.72;;
10269;SDS011;70826;50.930;5.334;2023-07-30T07:59:33;9.48;;;3.88;;
10269;SDS011;70826;50.930;5.334;2023-07-30T08:02:04;8.50;;;4.15;;
10269;SDS011;70826;50.930;5.334;2023-07-30T08:04:30;6.63;;;3.90;;
10269;SDS011;70826;50.930;5.334;2023-07-30T08:06:56;10.15;;;4.13;;
10269;SDS011;70826;50.930;5.334;2023-07-30T08:09:25;10.27;;;4.25;;
10269;SDS011;70826;50.930;5.334;2023-07-30T08:11:50;10.73;;;4.22;;
10269;SDS011;70826;50.930;5.334;2023-07-30T08:14:16;6.95;;;3.97;;
10269;SDS011;70826;50.930;5.334;2023-07-30T08:16:44;8.10;;;4.60;;
10269;SDS011;70826;50.930;5.334;2023-07-30T08:19:10;11.93;;;4.85;;
10269;SDS011;70826;50.930;5.334;2023-07-30T08:21:35;6.93;;;4.40;;
10269;SDS011;70826;50.930;5.334;2023-07-30T08:24:03;6.53;;;4.45;;
10269;SDS011;70826;50.930;5.334;2023-07-30T08:26:29;5.18;;;4.30;;
10269;SDS011;70826;50.930;5.334;2023-07-30T08:28:56;7.45;;;4.40;;
10269;SDS011;70826;50.930;5.334;2023-07-30T08:31:22;7.18;;;4.53;;
10269;SDS011;70826;50.930;5.334;2023-07-30T08:33:48;7.82;;;4.32;;
10269;SDS011;70826;50.930;5.334;2023-07-30T08:36:13;6.15;;;4.40;;
10269;SDS011;70826;50.930;5.334;2023-07-30T08:38:39;10.10;;;4.38;;
10269;SDS011;70826;50.930;5.334;2023-07-30T08:41:07;4.78;;;4.30;;
10269;SDS011;70826;50.930;5.334;2023-07-30T08:43:34;4.90;;;4.18;;
10269;SDS011;70826;50.930;5.334;2023-07-30T08:46:00;6.13;;;3.90;;
10269;SDS011;70826;50.930;5.334;2023-07-30T08:48:26;5.70;;;4.43;;
10269;SDS011;70826;50.930;5.334;2023-07-30T08:50:51;6.15;;;4.45;;
10269;SDS011;70826;50.930;5.334;2023-07-30T08:53:21;5.07;;;3.95;;
10269;SDS011;70826;50.930;5.334;2023-07-30T08:55:47;4.60;;;3.90;;
10269;SDS011;70826;50.930;5.334;2023-07-30T08:58:13;6.38;;;3.88;;
10269;SDS011;70826;50.930;5.334;2023-07-30T09:00:39;4.97;;;4.00;;
10269;SDS011;70826;50.930;5.334;2023-07-30T09:03:07;5.78;;;4.22;;
10269;SDS011;70826;50.930;5.334;2023-07-30T09:05:34;5.90;;;4.18;;
10269;SDS011;70826;50.930;5.334;2023-07-30T09:07:59;6.00;;;4.05;;
10269;SDS011;70826;50.930;5.334;2023-07-30T09:10:25;6.60;;;3.92;;
10269;SDS011;70826;50.930;5.334;2023-07-30T09:12:52;3.90;;;3.45;;
10269;SDS011;70826;50.930;5.334;2023-07-30T09:15:30;4.82;;;3.28;;
10269;SDS011;70826;50.930;5.334;2023-07-30T09:17:57;4.30;;;3.33;;
10269;SDS011;70826;50.930;5.334;2023-07-30T09:20:22;7.15;;;3.72;;
10269;SDS011;70826;50.930;5.334;2023-07-30T09:22:48;6.03;;;3.85;;
10269;SDS011;70826;50.930;5.334;2023-07-30T09:25:17;5.35;;;3.58;;
10269;SDS011;70826;50.930;5.334;2023-07-30T09:27:47;5.20;;;3.50;;
10269;SDS011;70826;50.930;5.334;2023-07-30T09:30:14;4.18;;;3.63;;
10269;SDS011;70826;50.930;5.334;2023-07-30T09:32:46;5.15;;;3.80;;
10269;SDS011;70826;50.930;5.334;2023-07-30T09:35:17;4.32;;;3.72;;
10269;SDS011;70826;50.930;5.334;2023-07-30T09:37:43;5.57;;;3.67;;
10269;SDS011;70826;50.930;5.334;2023-07-30T09:40:12;5.53;;;3.72;;
10269;SDS011;70826;50.930;5.334;2023-07-30T09:42:42;4.70;;;3.35;;
10269;SDS011;70826;50.930;5.334;2023-07-30T09:45:22;4.43;;;3.13;;
10269;SDS011;70826;50.930;5.334;2023-07-30T09:47:50;4.75;;;2.85;;
10269;SDS011;70826;50.930;5.334;2023-07-30T09:50:16;3.88;;;2.95;;
10269;SDS011;70826;50.930;5.334;2023-07-30T09:52:42;3.38;;;2.90;;
10269;SDS011;70826;50.930;5.334;2023-07-30T09:55:09;4.63;;;3.03;;
10269;SDS011;70826;50.930;5.334;2023-07-30T09:57:36;3.20;;;2.75;;
10269;SDS011;70826;50.930;5.334;2023-07-30T10:00:05;4.10;;;2.85;;
10269;SDS011;70826;50.930;5.334;2023-07-30T10:02:45;3.97;;;2.58;;
10269;SDS011;70826;50.930;5.334;2023-07-30T10:05:20;4.30;;;2.95;;
10269;SDS011;70826;50.930;5.334;2023-07-30T10:07:57;3.25;;;2.85;;
10269;SDS011;70826;50.930;5.334;2023-07-30T10:10:28;3.60;;;3.15;;
10269;SDS011;70826;50.930;5.334;2023-07-30T10:12:59;4.57;;;3.38;;
10269;SDS011;70826;50.930;5.334;2023-07-30T10:15:30;4.38;;;3.33;;
10269;SDS011;70826;50.930;5.334;2023-07-30T10:18:08;3.55;;;3.05;;
10269;SDS011;70826;50.930;5.334;2023-07-30T10:20:34;4.20;;;3.25;;
10269;SDS011;70826;50.930;5.334;2023-07-30T10:23:04;4.30;;;3.25;;
10269;SDS011;70826;50.930;5.334;2023-07-30T10:30:57;4.05;;;2.75;;
10269;SDS011;70826;50.930;5.334;2023-07-30T10:36:12;2.85;;;2.40;;
10269;SDS011;70826;50.930;5.334;2023-07-30T10:38:41;3.67;;;2.78;;
10269;SDS011;70826;50.930;5.334;2023-07-30T10:41:11;3.17;;;2.55;;
10269;SDS011;70826;50.930;5.334;2023-07-30T10:43:46;3.47;;;2.60;;
10269;SDS011;70826;50.930;5.334;2023-07-30T10:46:21;2.65;;;2.45;;
10269;SDS011;70826;50.930;5.334;2023-07-30T10:48:49;2.83;;;2.50;;
10269;SDS011;70826;50.930;5.334;2023-07-30T10:51:16;3.50;;;2.90;;
10269;SDS011;70826;50.930;5.334;2023-07-30T10:53:51;3.22;;;2.72;;
10269;SDS011;70826;50.930;5.334;2023-07-30T10:56:20;3.10;;;2.60;;
10269;SDS011;70826;50.930;5.334;2023-07-30T10:58:51;29.13;;;4.55;;
10269;SDS011;70826;50.930;5.334;2023-07-30T11:01:20;35.25;;;3.58;;
10269;SDS011;70826;50.930;5.334;2023-07-30T11:03:54;18.27;;;3.45;;
10269;SDS011;70826;50.930;5.334;2023-07-30T11:06:23;22.52;;;3.08;;
10269;SDS011;70826;50.930;5.334;2023-07-30T11:08:50;17.65;;;3.70;;
10269;SDS011;70826;50.930;5.334;2023-07-30T11:11:20;15.38;;;3.28;;
10269;SDS011;70826;50.930;5.334;2023-07-30T11:13:49;11.95;;;3.05;;
10269;SDS011;70826;50.930;5.334;2023-07-30T11:16:15;9.57;;;3.17;;
10269;SDS011;70826;50.930;5.334;2023-07-30T11:18:41;19.95;;;3.33;;
10269;SDS011;70826;50.930;5.334;2023-07-30T11:21:12;13.68;;;3.40;;
10269;SDS011;70826;50.930;5.334;2023-07-30T11:23:42;12.10;;;3.10;;
10269;SDS011;70826;50.930;5.334;2023-07-30T11:26:18;16.13;;;3.20;;
10269;SDS011;70826;50.930;5.334;2023-07-30T11:28:44;9.07;;;2.80;;
10269;SDS011;70826;50.930;5.334;2023-07-30T11:31:14;10.00;;;3.00;;
10269;SDS011;70826;50.930;5.334;2023-07-30T11:33:42;10.73;;;3.20;;
10269;SDS011;70826;50.930;5.334;2023-07-30T11:36:12;7.97;;;3.50;;
10269;SDS011;70826;50.930;5.334;2023-07-30T11:38:41;13.48;;;4.55;;
10269;SDS011;70826;50.930;5.334;2023-07-30T11:41:08;10.80;;;3.75;;
10269;SDS011;70826;50.930;5.334;2023-07-30T11:43:38;15.65;;;3.95;;
10269;SDS011;70826;50.930;5.334;2023-07-30T11:48:35;9.10;;;3.70;;
10269;SDS011;70826;50.930;5.334;2023-07-30T11:51:01;13.07;;;3.83;;
10269;SDS011;70826;50.930;5.334;2023-07-30T11:53:43;10.32;;;3.35;;
10269;SDS011;70826;50.930;5.334;2023-07-30T11:58:47;15.38;;;7.57;;
10269;SDS011;70826;50.930;5.334;2023-07-30T12:01:17;12.48;;;6.40;;
10269;SDS011;70826;50.930;5.334;2023-07-30T12:03:47;15.90;;;7.70;;
10269;SDS011;70826;50.930;5.334;2023-07-30T12:06:13;17.40;;;7.30;;
10269;SDS011;70826;50.930;5.334;2023-07-30T12:08:39;17.20;;;7.60;;
10269;SDS011;70826;50.930;5.334;2023-07-30T12:11:05;18.42;;;5.20;;
10269;SDS011;70826;50.930;5.334;2023-07-30T12:13:42;12.75;;;4.22;;
10269;SDS011;70826;50.930;5.334;2023-07-30T12:16:15;11.50;;;4.90;;
10269;SDS011;70826;50.930;5.334;2023-07-30T12:18:44;14.05;;;5.15;;
10269;SDS011;70826;50.930;5.334;2023-07-30T12:21:10;15.73;;;4.63;;
10269;SDS011;70826;50.930;5.334;2023-07-30T12:23:37;11.68;;;4.13;;
10269;SDS011;70826;50.930;5.334;2023-07-30T12:26:03;10.75;;;3.97;;
10269;SDS011;70826;50.930;5.334;2023-07-30T12:28:30;8.82;;;4.00;;
10269;SDS011;70826;50.930;5.334;2023-07-30T12:30:57;8.15;;;3.88;;
10269;SDS011;70826;50.930;5.334;2023-07-30T12:33:23;8.52;;;3.75;;
10269;SDS011;70826;50.930;5.334;2023-07-30T12:35:49;7.53;;;4.25;;
10269;SDS011;70826;50.930;5.334;2023-07-30T12:38:15;7.55;;;4.10;;
10269;SDS011;70826;50.930;5.334;2023-07-30T12:40:41;6.20;;;3.83;;
10269;SDS011;70826;50.930;5.334;2023-07-30T12:43:06;9.55;;;3.85;;
10269;SDS011;70826;50.930;5.334;2023-07-30T12:45:34;7.70;;;3.58;;
10269;SDS011;70826;50.930;5.334;2023-07-30T12:48:00;7.75;;;3.50;;
10269;SDS011;70826;50.930;5.334;2023-07-30T12:50:26;7.43;;;3.10;;
10269;SDS011;70826;50.930;5.334;2023-07-30T12:52:52;7.63;;;2.95;;
10269;SDS011;70826;50.930;5.334;2023-07-30T12:55:18;7.55;;;3.25;;
10269;SDS011;70826;50.930;5.334;2023-07-30T12:57:43;6.25;;;3.22;;
10269;SDS011;70826;50.930;5.334;2023-07-30T13:00:09;12.57;;;7.32;;
10269;SDS011;70826;50.930;5.334;2023-07-30T13:02:35;11.25;;;5.05;;
10269;SDS011;70826;50.930;5.334;2023-07-30T13:05:06;19.48;;;5.05;;
10269;SDS011;70826;50.930;5.334;2023-07-30T13:07:32;15.98;;;4.35;;
10269;SDS011;70826;50.930;5.334;2023-07-30T13:10:03;13.27;;;4.28;;
10269;SDS011;70826;50.930;5.334;2023-07-30T13:12:33;13.05;;;4.43;;
10269;SDS011;70826;50.930;5.334;2023-07-30T13:15:04;13.07;;;4.32;;
10269;SDS011;70826;50.930;5.334;2023-07-30T13:17:32;11.20;;;4.00;;
10269;SDS011;70826;50.930;5.334;2023-07-30T13:20:00;9.50;;;3.53;;
10269;SDS011;70826;50.930;5.334;2023-07-30T13:22:30;6.53;;;3.15;;
10269;SDS011;70826;50.930;5.334;2023-07-30T13:24:56;6.80;;;3.08;;
10269;SDS011;70826;50.930;5.334;2023-07-30T13:27:22;11.15;;;3.55;;
10269;SDS011;70826;50.930;5.334;2023-07-30T13:29:47;30.80;;;5.45;;
10269;SDS011;70826;50.930;5.334;2023-07-30T13:32:14;34.33;;;4.57;;
10269;SDS011;70826;50.930;5.334;2023-07-30T13:34:40;17.15;;;3.40;;
10269;SDS011;70826;50.930;5.334;2023-07-30T13:37:05;21.30;;;3.88;;
10269;SDS011;70826;50.930;5.334;2023-07-30T13:39:31;27.27;;;4.20;;
10269;SDS011;70826;50.930;5.334;2023-07-30T13:41:57;21.15;;;3.50;;
10269;SDS011;70826;50.930;5.334;2023-07-30T13:44:22;18.02;;;3.70;;
10269;SDS011;70826;50.930;5.334;2023-07-30T13:46:48;15.30;;;3.33;;
10269;SDS011;70826;50.930;5.334;2023-07-30T13:49:16;18.60;;;3.17;;
10269;SDS011;70826;50.930;5.334;2023-07-30T13:51:46;13.30;;;2.70;;
10269;SDS011;70826;50.930;5.334;2023-07-30T13:54:17;16.13;;;3.33;;
10269;SDS011;70826;50.930;5.334;2023-07-30T13:56:44;19.33;;;3.17;;
10269;SDS011;70826;50.930;5.334;2023-07-30T13:59:17;11.25;;;2.90;;
10269;SDS011;70826;50.930;5.334;2023-07-30T14:01:43;13.32;;;3.03;;
10269;SDS011;70826;50.930;5.334;2023-07-30T14:04:11;9.82;;;2.70;;
10269;SDS011;70826;50.930;5.334;2023-07-30T14:06:39;7.63;;;2.70;;
10269;SDS011;70826;50.930;5.334;2023-07-30T14:09:04;11.75;;;2.97;;
10269;SDS011;70826;50.930;5.334;2023-07-30T14:11:34;8.10;;;2.85;;
10269;SDS011;70826;50.930;5.334;2023-07-30T14:14:00;10.05;;;2.80;;
10269;SDS011;70826;50.930;5.334;2023-07-30T14:16:29;6.43;;;2.40;;
10269;SDS011;70826;50.930;5.334;2023-07-30T14:18:54;10.60;;;2.80;;
10269;SDS011;70826;50.930;5.334;2023-07-30T14:21:20;7.53;;;2.33;;
10269;SDS011;70826;50.930;5.334;2023-07-30T14:23:48;6.57;;;2.30;;
10269;SDS011;70826;50.930;5.334;2023-07-30T14:26:14;5.82;;;2.45;;
10269;SDS011;70826;50.930;5.334;2023-07-30T14:28:41;8.65;;;2.25;;
10269;SDS011;70826;50.930;5.334;2023-07-30T14:31:07;5.65;;;2.08;;
10269;SDS011;70826;50.930;5.334;2023-07-30T14:33:35;5.40;;;2.25;;
10269;SDS011;70826;50.930;5.334;2023-07-30T14:36:01;5.70;;;2.38;;
10269;SDS011;70826;50.930;5.334;2023-07-30T14:38:28;6.05;;;2.13;;
10269;SDS011;70826;50.930;5.334;2023-07-30T14:40:56;4.78;;;2.30;;
10269;SDS011;70826;50.930;5.334;2023-07-30T14:43:25;4.63;;;2.17;;
10269;SDS011;70826;50.930;5.334;2023-07-30T14:45:50;5.78;;;2.20;;
10269;SDS011;70826;50.930;5.334;2023-07-30T14:48:16;7.32;;;2.28;;
10269;SDS011;70826;50.930;5.334;2023-07-30T14:50:42;3.78;;;2.10;;
10269;SDS011;70826;50.930;5.334;2023-07-30T14:53:12;4.75;;;2.10;;
10269;SDS011;70826;50.930;5.334;2023-07-30T14:55:40;4.30;;;2.17;;
10269;SDS011;70826;50.930;5.334;2023-07-30T14:58:08;3.72;;;2.00;;
10269;SDS011;70826;50.930;5.334;2023-07-30T15:00:34;4.72;;;2.00;;